Track Клочев Александр

Time Latitude Longitude Accuracy (66% radius in meters) Altitude (meters) Speed (km/hour) Bearing (degrees) Battery (%) GPS flag
09:26:06 60.403623 30.325083 0 0 0 0 1 delete
09:26:05 60.403612 30.325123 0 0 0 0 1 delete
09:26:04 60.403594 30.325166 0 0 0 0 1 delete
09:26:03 60.403594 30.325166 0 0 0 0 1 delete
09:25:57 60.403594 30.325166 0 0 0 0 1 delete
09:25:56 60.403594 30.325166 0 0 0 0 1 delete
09:25:53 60.403594 30.325166 0 0 0 0 1 delete
09:25:52 60.403589 30.325177 0 0 0 0 1 delete
09:25:51 60.403583 30.325183 0 0 0 0 1 delete
09:25:50 60.403578 30.325192 0 0 0 0 1 delete
09:25:49 60.403575 30.325190 0 0 0 0 1 delete
09:25:48 60.403572 30.325187 0 0 0 0 1 delete
09:25:47 60.403568 30.325174 0 0 0 0 1 delete
09:25:46 60.403567 30.325165 0 0 0 0 1 delete
09:25:45 60.403568 30.325152 0 0 0 0 1 delete
09:25:44 60.403567 30.325137 0 0 0 0 1 delete
09:25:43 60.403568 30.325121 0 0 0 0 1 delete
09:25:42 60.403564 30.325113 0 0 0 0 1 delete
09:25:41 60.403565 30.325105 0 0 0 0 1 delete
09:25:40 60.403565 30.325092 0 0 0 0 1 delete
09:25:39 60.403568 30.325080 0 0 0 0 1 delete
09:25:38 60.403569 30.325079 0 0 0 0 1 delete
09:25:37 60.403569 30.325079 0 0 0 0 1 delete
09:25:35 60.403569 30.325079 0 0 0 0 1 delete
09:25:34 60.403569 30.325090 0 0 0 0 1 delete
09:25:33 60.403569 30.325099 0 0 0 0 1 delete
09:25:32 60.403569 30.325099 0 0 0 0 1 delete
09:25:28 60.403569 30.325099 0 0 0 0 1 delete
09:25:27 60.403569 30.325104 0 0 0 0 1 delete
09:25:26 60.403570 30.325107 0 0 0 0 1 delete
09:25:25 60.403571 30.325106 0 0 0 0 1 delete
09:25:24 60.403573 30.325104 0 0 0 0 1 delete
09:25:23 60.403569 30.325110 0 0 0 0 1 delete
09:25:22 60.403562 30.325120 0 0 0 0 1 delete
09:25:21 60.403554 30.325134 0 0 0 0 1 delete
09:25:20 60.403548 30.325142 0 0 0 0 1 delete
09:25:19 60.403546 30.325146 0 0 0 0 1 delete
09:25:18 60.403545 30.325143 0 0 0 0 1 delete
09:25:17 60.403548 30.325132 0 0 0 0 1 delete
09:25:16 60.403553 30.325109 0 0 0 0 1 delete
09:25:15 60.403526 30.325009 0 0 0 0 1 delete
09:25:14 60.403498 30.324917 0 0 0 0 1 delete
09:25:13 60.403469 30.324835 0 0 0 0 1 delete
09:25:12 60.403469 30.324835 0 0 0 0 1 delete
09:24:49 60.403469 30.324835 0 0 0 0 1 delete
09:24:48 60.403472 30.324831 0 0 0 0 1 delete
09:24:47 60.403476 30.324830 0 0 0 0 1 delete
09:24:46 60.403478 30.324831 0 0 0 0 1 delete
09:24:45 60.403478 30.324833 0 0 0 0 1 delete
09:24:44 60.403478 30.324833 0 0 0 0 1 delete